Time;durP1;ratioP1;P1;durP2;ratioP2;P2;SDS_P1;SDS_P2;PMS_P1;PMS_P2;Temp;Humidity;BMP_temperature;BMP_pressure;BME280_temperature;BME280_humidity;BME280_pressure;Samples;Min_cycle;Max_cycle;Signal;HPM_P1;HPM_P2
2022/05/28 00:00:49;;;;;;;15.98;5.35;;;;;;;;;;5206037;28;20060;-64
2022/05/28 00:03:20;;;;;;;9.85;6.13;;;;;;;;;;5227919;28;20103;-62
2022/05/28 00:05:50;;;;;;;9.80;4.85;;;;;;;;;;5210021;28;20021;-65
2022/05/28 00:08:21;;;;;;;14.52;6.20;;;;;;;;;;5210609;28;20119;-65
2022/05/28 00:13:59;;;;;;;8.18;5.93;;;;;;;;;;5229002;28;20040;-63
2022/05/28 00:16:30;;;;;;;15.35;6.53;;;;;;;;;;5210962;28;20021;-63
2022/05/28 00:19:00;;;;;;;8.85;5.32;;;;;;;;;;5211060;28;20031;-64
2022/05/28 00:21:31;;;;;;;10.95;5.25;;;;;;;;;;5211203;28;20032;-64
2022/05/28 00:24:01;;;;;;;7.00;6.40;;;;;;;;;;5228885;28;20130;-65
2022/05/28 00:26:32;;;;;;;11.15;7.05;;;;;;;;;;5210874;28;20032;-65
2022/05/28 00:29:02;;;;;;;6.40;5.80;;;;;;;;;;5211290;28;20506;-64
2022/05/28 00:31:32;;;;;;;9.93;6.18;;;;;;;;;;5210818;28;20032;-64
2022/05/28 00:34:03;;;;;;;7.78;7.07;;;;;;;;;;5210388;28;20476;-65
2022/05/28 00:36:33;;;;;;;9.32;6.30;;;;;;;;;;5210797;28;20196;-64
2022/05/28 00:39:04;;;;;;;5.70;5.38;;;;;;;;;;5210702;28;20031;-64
2022/05/28 00:41:34;;;;;;;11.82;6.57;;;;;;;;;;5210691;28;20112;-64
2022/05/28 00:44:05;;;;;;;20.00;7.40;;;;;;;;;;5210382;28;20024;-66
2022/05/28 00:46:36;;;;;;;6.78;6.15;;;;;;;;;;5210774;28;20473;-64
2022/05/28 00:49:07;;;;;;;6.18;5.53;;;;;;;;;;5210671;28;20017;-64
2022/05/28 00:51:44;;;;;;;6.25;5.75;;;;;;;;;;5210608;28;20017;-64
2022/05/28 00:54:15;;;;;;;7.07;6.47;;;;;;;;;;5228044;28;20388;-62
2022/05/28 00:56:45;;;;;;;13.88;7.97;;;;;;;;;;5210281;28;20097;-64
2022/05/28 00:59:16;;;;;;;7.22;6.15;;;;;;;;;;5227996;28;20452;-65
2022/05/28 01:01:46;;;;;;;23.58;7.30;;;;;;;;;;5210327;28;20032;-65
2022/05/28 01:04:17;;;;;;;6.95;5.95;;;;;;;;;;5210046;28;20025;-65
2022/05/28 01:06:57;;;;;;;11.10;6.53;;;;;;;;;;5210072;28;20029;-64
2022/05/28 01:09:37;;;;;;;11.77;8.10;;;;;;;;;;5210193;28;20013;-65
2022/05/28 01:12:13;;;;;;;13.45;7.45;;;;;;;;;;5210083;28;20120;-63
2022/05/28 01:14:52;;;;;;;7.32;6.63;;;;;;;;;;5209585;28;20442;-64
2022/05/28 01:17:26;;;;;;;8.98;6.88;;;;;;;;;;5210008;28;20063;-66
2022/05/28 01:19:59;;;;;;;12.80;7.32;;;;;;;;;;5210089;28;20021;-64
2022/05/28 01:22:41;;;;;;;15.98;7.35;;;;;;;;;;5228064;28;20025;-64
2022/05/28 01:25:18;;;;;;;8.02;7.13;;;;;;;;;;5227396;28;20021;-65
2022/05/28 01:27:55;;;;;;;12.55;6.43;;;;;;;;;;5209743;28;20021;-64
2022/05/28 01:30:25;;;;;;;11.43;5.85;;;;;;;;;;5209525;28;20021;-66
2022/05/28 01:32:57;;;;;;;9.98;7.35;;;;;;;;;;5209721;28;20031;-65
2022/05/28 01:35:28;;;;;;;10.90;6.80;;;;;;;;;;5209394;28;20048;-66
2022/05/28 01:37:59;;;;;;;14.88;5.97;;;;;;;;;;5227481;28;20099;-66
2022/05/28 01:40:30;;;;;;;7.65;6.43;;;;;;;;;;5209636;28;20112;-66
2022/05/28 01:43:05;;;;;;;6.63;6.18;;;;;;;;;;5209531;28;20151;-66
2022/05/28 01:45:36;;;;;;;10.63;6.47;;;;;;;;;;5209552;28;20021;-65
2022/05/28 01:48:07;;;;;;;8.98;6.57;;;;;;;;;;5209599;28;20032;-66
2022/05/28 01:50:43;;;;;;;17.30;7.22;;;;;;;;;;5209338;28;20443;-66
2022/05/28 01:54:07;;;;;;;6.63;5.93;;;;;;;;;;5209121;28;20409;-65
2022/05/28 01:56:08;;;;;;;7.45;6.80;;;;;;;;;;5226824;28;20024;-64
2022/05/28 01:58:38;;;;;;;7.93;6.28;;;;;;;;;;5209280;28;20032;-65
2022/05/28 02:01:09;;;;;;;9.77;6.75;;;;;;;;;;5209228;28;20025;-66
2022/05/28 02:03:41;;;;;;;12.65;5.85;;;;;;;;;;5209016;28;20489;-66
2022/05/28 02:06:12;;;;;;;13.27;6.45;;;;;;;;;;5209090;28;20043;-66
2022/05/28 02:08:43;;;;;;;10.43;6.15;;;;;;;;;;5209239;28;20017;-66
2022/05/28 02:11:19;;;;;;;10.18;6.47;;;;;;;;;;5210082;28;20032;-66
2022/05/28 02:14:07;;;;;;;6.55;5.97;;;;;;;;;;5209857;28;20384;-65
2022/05/28 02:16:38;;;;;;;6.03;5.53;;;;;;;;;;5210146;28;20029;-65
2022/05/28 02:19:14;;;;;;;14.68;7.60;;;;;;;;;;5208880;28;20029;-66
2022/05/28 02:22:01;;;;;;;8.85;7.55;;;;;;;;;;5208889;28;20251;-65
2022/05/28 02:24:35;;;;;;;10.02;7.50;;;;;;;;;;5207632;28;20457;-64
2022/05/28 02:27:08;;;;;;;14.02;6.35;;;;;;;;;;5208493;28;20107;-66
2022/05/28 02:29:38;;;;;;;11.25;7.10;;;;;;;;;;5208526;28;20013;-66
2022/05/28 02:32:13;;;;;;;12.90;7.45;;;;;;;;;;5208628;28;20016;-64
2022/05/28 02:34:45;;;;;;;14.85;7.63;;;;;;;;;;5208315;28;20052;-63
2022/05/28 02:37:16;;;;;;;13.63;7.63;;;;;;;;;;5208335;28;20048;-64
2022/05/28 02:39:53;;;;;;;9.20;5.93;;;;;;;;;;5207790;28;20013;-66
2022/05/28 02:42:23;;;;;;;7.50;6.50;;;;;;;;;;5208226;28;20025;-66
2022/05/28 02:44:54;;;;;;;13.10;6.18;;;;;;;;;;5208106;28;20081;-65
2022/05/28 02:47:24;;;;;;;10.32;6.72;;;;;;;;;;5208296;28;20422;-64
2022/05/28 02:49:55;;;;;;;15.52;6.03;;;;;;;;;;5208275;28;20025;-64
2022/05/28 02:52:25;;;;;;;10.07;6.88;;;;;;;;;;5208117;28;20099;-64
2022/05/28 02:58:03;;;;;;;15.48;6.95;;;;;;;;;;5225401;28;20410;-64
2022/05/28 03:00:33;;;;;;;12.07;8.05;;;;;;;;;;5208334;28;20017;-65
2022/05/28 03:03:04;;;;;;;10.43;7.32;;;;;;;;;;5211677;22;20495;-80
2022/05/28 03:05:34;;;;;;;14.83;7.57;;;;;;;;;;5196995;28;20030;-79
2022/05/28 03:08:04;;;;;;;10.13;9.15;;;;;;;;;;5215357;28;20327;-79
2022/05/28 03:10:34;;;;;;;10.88;7.28;;;;;;;;;;5197527;28;20067;-80
2022/05/28 03:13:06;;;;;;;12.98;9.27;;;;;;;;;;5214315;28;20082;-80
2022/05/28 03:15:36;;;;;;;10.13;7.38;;;;;;;;;;5214146;28;20364;-77
2022/05/28 03:18:07;;;;;;;11.95;7.88;;;;;;;;;;5196343;28;20070;-77
2022/05/28 03:20:38;;;;;;;15.80;7.88;;;;;;;;;;5214431;28;20037;-77
2022/05/28 03:23:09;;;;;;;13.57;8.27;;;;;;;;;;5213571;28;20029;-78
2022/05/28 03:25:39;;;;;;;13.57;8.18;;;;;;;;;;5213594;28;20021;-79
2022/05/28 03:28:09;;;;;;;11.10;8.32;;;;;;;;;;5213743;28;20033;-78
2022/05/28 03:30:40;;;;;;;23.13;9.05;;;;;;;;;;5214359;28;20302;-78
2022/05/28 03:33:10;;;;;;;10.13;7.90;;;;;;;;;;5196156;28;20016;-78
2022/05/28 03:35:41;;;;;;;12.52;8.95;;;;;;;;;;5213949;28;20040;-79
2022/05/28 03:38:11;;;;;;;10.93;7.63;;;;;;;;;;5217648;28;20101;-78
2022/05/28 03:40:41;;;;;;;9.38;7.05;;;;;;;;;;5218391;28;20073;-79
2022/05/28 03:43:12;;;;;;;12.57;8.00;;;;;;;;;;5218528;28;20026;-78
2022/05/28 03:45:42;;;;;;;15.30;10.07;;;;;;;;;;5218413;28;20017;-79
2022/05/28 03:48:12;;;;;;;17.55;8.13;;;;;;;;;;5219002;28;20022;-81
2022/05/28 03:50:43;;;;;;;12.90;9.30;;;;;;;;;;5217432;28;20017;-78
2022/05/28 03:53:15;;;;;;;9.55;7.93;;;;;;;;;;5217539;28;20049;-78
2022/05/28 03:55:46;;;;;;;11.52;8.20;;;;;;;;;;5217400;28;20529;-80
2022/05/28 03:58:16;;;;;;;9.48;8.02;;;;;;;;;;5218437;28;20018;-80
2022/05/28 04:00:46;;;;;;;8.65;7.93;;;;;;;;;;5217979;28;20021;-78
2022/05/28 04:03:16;;;;;;;13.48;8.70;;;;;;;;;;5200158;28;20037;-78
2022/05/28 04:05:47;;;;;;;13.27;8.80;;;;;;;;;;5217609;28;20028;-79
2022/05/28 04:08:17;;;;;;;11.07;7.97;;;;;;;;;;5217565;28;20785;-78
2022/05/28 04:10:47;;;;;;;12.63;9.38;;;;;;;;;;5199829;28;20067;-78
2022/05/28 04:13:18;;;;;;;9.30;8.32;;;;;;;;;;5217467;28;20018;-79
2022/05/28 04:15:49;;;;;;;10.65;7.70;;;;;;;;;;5217189;28;20028;-79
2022/05/28 04:18:19;;;;;;;8.88;6.55;;;;;;;;;;5217733;28;20044;-77
2022/05/28 04:20:50;;;;;;;8.88;8.10;;;;;;;;;;5217494;28;20021;-79
2022/05/28 04:23:20;;;;;;;11.90;8.45;;;;;;;;;;5217372;28;20060;-79
2022/05/28 04:25:50;;;;;;;19.13;8.10;;;;;;;;;;5216406;28;20101;-79
2022/05/28 04:28:21;;;;;;;9.48;6.82;;;;;;;;;;5217305;28;20014;-80
2022/05/28 04:30:51;;;;;;;11.93;7.38;;;;;;;;;;5217757;28;20410;-80
2022/05/28 04:33:21;;;;;;;12.13;7.38;;;;;;;;;;5199764;28;20045;-78
2022/05/28 04:35:52;;;;;;;11.43;7.07;;;;;;;;;;5199280;28;20018;-80
2022/05/28 04:38:23;;;;;;;14.43;8.60;;;;;;;;;;5217371;28;20097;-81
2022/05/28 04:40:53;;;;;;;6.68;5.93;;;;;;;;;;5198956;28;20026;-79
2022/05/28 04:43:24;;;;;;;14.30;7.70;;;;;;;;;;5214301;28;20021;-79
2022/05/28 04:45:54;;;;;;;9.82;5.88;;;;;;;;;;5180700;28;20053;-80
2022/05/28 04:48:24;;;;;;;26.05;10.18;;;;;;;;;;5196759;28;20028;-80
2022/05/28 04:50:55;;;;;;;10.93;7.60;;;;;;;;;;5181222;28;20014;-80
2022/05/28 04:53:25;;;;;;;13.65;5.65;;;;;;;;;;5178075;28;20018;-81
2022/05/28 04:55:55;;;;;;;8.20;5.60;;;;;;;;;;5195842;28;20026;-80
2022/05/28 04:58:27;;;;;;;6.50;5.80;;;;;;;;;;5195451;28;20022;-79
2022/05/28 05:00:57;;;;;;;13.77;7.15;;;;;;;;;;5195662;28;20036;-79
2022/05/28 05:03:28;;;;;;;11.95;6.65;;;;;;;;;;5195336;28;20120;-78
2022/05/28 05:05:58;;;;;;;11.55;6.05;;;;;;;;;;5177517;28;20025;-79
2022/05/28 05:08:30;;;;;;;13.23;7.63;;;;;;;;;;5195215;28;20044;-79
2022/05/28 05:11:01;;;;;;;7.38;5.75;;;;;;;;;;5194731;28;20391;-79
2022/05/28 05:13:31;;;;;;;17.55;7.13;;;;;;;;;;5177411;28;20014;-79
2022/05/28 05:16:06;;;;;;;12.75;6.57;;;;;;;;;;5177620;28;20068;-79
2022/05/28 05:18:36;;;;;;;6.63;5.88;;;;;;;;;;5177538;28;20069;-80
2022/05/28 05:21:07;;;;;;;22.27;7.90;;;;;;;;;;5194793;28;20463;-78
2022/05/28 05:23:40;;;;;;;16.33;5.82;;;;;;;;;;5195405;28;20104;-79
2022/05/28 05:26:15;;;;;;;10.57;5.88;;;;;;;;;;5195274;28;20013;-80
2022/05/28 05:28:46;;;;;;;12.60;5.15;;;;;;;;;;5195095;28;20018;-79
2022/05/28 05:31:17;;;;;;;9.02;6.63;;;;;;;;;;5194546;28;20024;-79
2022/05/28 05:33:47;;;;;;;5.47;4.78;;;;;;;;;;5195165;28;20052;-79
2022/05/28 05:36:17;;;;;;;8.60;4.63;;;;;;;;;;5177442;28;20026;-79
2022/05/28 05:38:47;;;;;;;13.02;7.75;;;;;;;;;;5195068;28;20018;-79
2022/05/28 05:41:18;;;;;;;9.63;5.20;;;;;;;;;;5195601;28;20026;-82
2022/05/28 05:43:48;;;;;;;7.20;5.05;;;;;;;;;;5196216;28;20026;-78
2022/05/28 05:46:18;;;;;;;9.65;4.70;;;;;;;;;;5176980;28;20022;-78
2022/05/28 05:48:48;;;;;;;6.35;5.55;;;;;;;;;;5196824;28;20014;-81
2022/05/28 05:51:19;;;;;;;13.45;5.47;;;;;;;;;;5179383;28;20022;-81
2022/05/28 05:53:49;;;;;;;4.53;3.07;;;;;;;;;;5179593;28;20399;-78
2022/05/28 05:56:19;;;;;;;9.95;5.28;;;;;;;;;;5197013;28;20766;-81
2022/05/28 05:58:49;;;;;;;10.02;4.78;;;;;;;;;;5196751;28;20388;-82
2022/05/28 06:01:20;;;;;;;15.23;4.47;;;;;;;;;;5196796;28;20098;-79
2022/05/28 06:03:50;;;;;;;3.42;2.97;;;;;;;;;;5196448;28;20029;-80
2022/05/28 06:06:21;;;;;;;8.45;3.75;;;;;;;;;;5197234;28;20081;-82
2022/05/28 06:08:51;;;;;;;6.93;3.42;;;;;;;;;;5180327;28;20044;-80
2022/05/28 06:11:21;;;;;;;15.53;3.87;;;;;;;;;;5197821;28;20018;-79
2022/05/28 06:13:52;;;;;;;3.65;3.45;;;;;;;;;;5197528;28;20295;-80
2022/05/28 06:16:22;;;;;;;7.28;3.08;;;;;;;;;;5197648;28;20026;-81
2022/05/28 06:18:53;;;;;;;6.60;4.65;;;;;;;;;;5197425;28;20045;-82
2022/05/28 06:21:24;;;;;;;11.52;3.85;;;;;;;;;;5196497;28;20100;-82
2022/05/28 06:23:55;;;;;;;7.97;4.10;;;;;;;;;;5197368;28;20028;-79
2022/05/28 06:26:25;;;;;;;5.50;4.10;;;;;;;;;;5197303;28;20014;-81
2022/05/28 06:28:55;;;;;;;3.00;2.58;;;;;;;;;;5197002;28;20018;-83
2022/05/28 06:31:26;;;;;;;7.32;4.13;;;;;;;;;;5196798;28;20015;-84
2022/05/28 06:33:56;;;;;;;3.97;3.38;;;;;;;;;;5196681;28;20036;-83
2022/05/28 06:36:26;;;;;;;9.57;4.17;;;;;;;;;;5197696;28;20079;-84
2022/05/28 06:38:56;;;;;;;7.47;3.53;;;;;;;;;;5197446;28;20323;-84
2022/05/28 06:41:27;;;;;;;3.57;3.27;;;;;;;;;;5197624;28;20036;-85
2022/05/28 06:43:57;;;;;;;3.70;2.85;;;;;;;;;;5178823;28;20265;-83
2022/05/28 06:46:28;;;;;;;2.53;2.40;;;;;;;;;;5195543;28;20041;-80
2022/05/28 06:48:59;;;;;;;4.95;2.03;;;;;;;;;;5178789;28;20296;-82
2022/05/28 06:51:31;;;;;;;3.65;2.03;;;;;;;;;;5195819;28;20018;-82
2022/05/28 06:54:02;;;;;;;3.65;2.60;;;;;;;;;;5179886;28;20041;-82
2022/05/28 06:56:32;;;;;;;3.05;2.15;;;;;;;;;;5196496;28;20014;-81
2022/05/28 06:59:03;;;;;;;3.13;2.90;;;;;;;;;;5197090;28;20018;-81
2022/05/28 07:01:33;;;;;;;6.07;2.15;;;;;;;;;;5196387;28;20028;-81
2022/05/28 07:04:04;;;;;;;3.65;2.13;;;;;;;;;;5202778;28;20044;-82
2022/05/28 07:06:34;;;;;;;2.33;2.13;;;;;;;;;;5200699;28;20032;-82
2022/05/28 07:09:07;;;;;;;2.38;2.15;;;;;;;;;;5196441;28;20014;-81
2022/05/28 07:11:38;;;;;;;4.45;2.88;;;;;;;;;;5196381;28;20043;-82
2022/05/28 07:14:08;;;;;;;4.45;2.22;;;;;;;;;;5178469;28;20112;-82
2022/05/28 07:16:38;;;;;;;4.57;2.78;;;;;;;;;;5197154;28;20364;-81
2022/05/28 07:19:08;;;;;;;3.78;2.63;;;;;;;;;;5198660;28;20025;-85
2022/05/28 07:21:39;;;;;;;3.60;2.33;;;;;;;;;;5181208;28;20022;-84
2022/05/28 07:24:09;;;;;;;2.57;2.33;;;;;;;;;;5197143;28;20268;-85
2022/05/28 07:26:42;;;;;;;6.18;2.45;;;;;;;;;;5197773;28;20288;-84
2022/05/28 07:29:12;;;;;;;3.75;2.15;;;;;;;;;;5198390;28;20017;-85
2022/05/28 07:31:43;;;;;;;1.98;1.58;;;;;;;;;;5195939;28;20022;-84
2022/05/28 07:34:16;;;;;;;5.78;2.13;;;;;;;;;;5179467;28;20017;-85
2022/05/28 07:36:48;;;;;;;3.85;3.65;;;;;;;;;;5179706;28;20028;-84
2022/05/28 07:39:18;;;;;;;4.15;2.40;;;;;;;;;;5180109;28;20113;-84
2022/05/28 07:41:48;;;;;;;5.18;2.78;;;;;;;;;;5198026;28;20025;-83
2022/05/28 07:44:19;;;;;;;2.33;2.13;;;;;;;;;;5197314;28;20018;-83
2022/05/28 07:46:50;;;;;;;2.15;2.05;;;;;;;;;;5199826;28;20043;-81
2022/05/28 07:49:20;;;;;;;6.05;3.28;;;;;;;;;;5199594;28;20081;-83
2022/05/28 07:51:50;;;;;;;1.50;1.50;;;;;;;;;;5181999;28;20044;-83
2022/05/28 07:54:21;;;;;;;3.97;3.55;;;;;;;;;;5196571;28;20022;-84
2022/05/28 07:56:51;;;;;;;7.03;2.67;;;;;;;;;;5179987;28;20029;-81
2022/05/28 07:59:22;;;;;;;3.33;2.50;;;;;;;;;;5180392;28;20112;-81
2022/05/28 08:01:53;;;;;;;2.47;2.10;;;;;;;;;;5196943;28;20032;-83
2022/05/28 08:04:23;;;;;;;3.05;2.10;;;;;;;;;;5179397;28;20455;-82
2022/05/28 08:06:57;;;;;;;2.35;2.22;;;;;;;;;;5196051;28;20041;-83
2022/05/28 08:09:30;;;;;;;3.60;3.08;;;;;;;;;;5198098;28;20459;-83
2022/05/28 08:12:04;;;;;;;6.03;3.35;;;;;;;;;;5181121;28;20037;-82
2022/05/28 08:14:35;;;;;;;3.03;2.53;;;;;;;;;;5200494;28;20025;-84
2022/05/28 08:17:05;;;;;;;4.28;2.60;;;;;;;;;;5199308;28;20065;-84
2022/05/28 08:19:36;;;;;;;3.50;2.65;;;;;;;;;;5197070;28;20045;-82
2022/05/28 08:24:55;;;;;;;2.43;2.23;;;;;;;;;;5203586;28;20558;-83
2022/05/28 08:27:25;;;;;;;3.85;2.75;;;;;;;;;;5184815;28;20030;-81
2022/05/28 08:29:58;;;;;;;5.33;2.37;;;;;;;;;;5204434;28;20025;-82
2022/05/28 08:32:29;;;;;;;1.80;1.80;;;;;;;;;;5186284;28;20272;-84
2022/05/28 08:35:02;;;;;;;1.92;1.83;;;;;;;;;;5186011;28;20056;-83
2022/05/28 08:37:37;;;;;;;2.65;2.35;;;;;;;;;;5186859;28;20056;-84
2022/05/28 08:40:08;;;;;;;1.95;1.90;;;;;;;;;;5182646;28;20086;-82
2022/05/28 08:42:38;;;;;;;6.32;2.40;;;;;;;;;;5197535;28;20068;-82
2022/05/28 08:45:12;;;;;;;2.33;2.20;;;;;;;;;;5177961;28;20033;-82
2022/05/28 08:47:46;;;;;;;2.00;1.98;;;;;;;;;;5196080;28;20077;-83
2022/05/28 08:50:16;;;;;;;1.98;1.63;;;;;;;;;;5196361;28;20100;-82
2022/05/28 08:52:50;;;;;;;1.80;1.80;;;;;;;;;;5179194;28;20022;-82
2022/05/28 08:55:23;;;;;;;4.50;2.60;;;;;;;;;;5180923;28;20045;-82
2022/05/28 08:58:04;;;;;;;5.78;1.88;;;;;;;;;;5199348;28;20032;-82
2022/05/28 09:00:41;;;;;;;3.08;2.00;;;;;;;;;;5198469;28;20022;-82
2022/05/28 09:03:13;;;;;;;2.53;2.33;;;;;;;;;;5204950;23;20041;-85
2022/05/28 09:05:46;;;;;;;2.17;1.75;;;;;;;;;;5214853;28;20029;-82
2022/05/28 09:08:23;;;;;;;1.73;1.60;;;;;;;;;;5216925;28;20523;-87
2022/05/28 09:10:55;;;;;;;3.65;2.13;;;;;;;;;;5195836;28;20018;-86
2022/05/28 09:13:25;;;;;;;6.70;2.75;;;;;;;;;;5220179;28;20013;-85
2022/05/28 09:15:57;;;;;;;4.70;1.67;;;;;;;;;;5200207;28;20022;-85
2022/05/28 09:18:32;;;;;;;1.67;1.58;;;;;;;;;;5218814;28;20289;-85
2022/05/28 09:21:03;;;;;;;4.28;3.17;;;;;;;;;;5204671;28;20097;-85
2022/05/28 09:23:39;;;;;;;4.78;2.05;;;;;;;;;;5204133;28;20380;-85
2022/05/28 09:26:10;;;;;;;1.52;1.52;;;;;;;;;;5203561;28;20022;-85
2022/05/28 09:28:43;;;;;;;2.78;2.67;;;;;;;;;;5220095;28;20017;-85
2022/05/28 09:31:38;;;;;;;2.00;1.80;;;;;;;;;;5221925;28;20028;-83
2022/05/28 09:34:14;;;;;;;2.85;2.28;;;;;;;;;;5201984;28;20428;-85
2022/05/28 09:37:08;;;;;;;2.83;1.88;;;;;;;;;;5202193;28;20022;-84
2022/05/28 09:39:44;;;;;;;1.63;1.63;;;;;;;;;;5212538;28;20041;-84
2022/05/28 09:42:17;;;;;;;1.60;1.38;;;;;;;;;;5221992;28;20081;-85
2022/05/28 09:45:12;;;;;;;6.07;2.83;;;;;;;;;;5202524;28;20029;-84
2022/05/28 09:47:44;;;;;;;2.38;1.83;;;;;;;;;;5219080;28;20025;-84
2022/05/28 09:50:37;;;;;;;3.63;1.88;;;;;;;;;;5221906;28;20088;-84
2022/05/28 09:56:04;;;;;;;5.32;2.85;;;;;;;;;;5222762;28;20040;-84
2022/05/28 09:58:36;;;;;;;2.78;2.60;;;;;;;;;;5220216;28;20010;-86
2022/05/28 10:01:11;;;;;;;6.72;2.33;;;;;;;;;;5199716;28;20022;-84
2022/05/28 10:06:32;;;;;;;4.15;2.53;;;;;;;;;;5220536;28;20025;-84
2022/05/28 10:09:14;;;;;;;5.32;2.35;;;;;;;;;;5221277;28;20041;-86
2022/05/28 10:11:50;;;;;;;3.35;2.25;;;;;;;;;;5220395;28;20017;-86
2022/05/28 10:14:22;;;;;;;3.40;1.70;;;;;;;;;;5220901;28;20025;-86
2022/05/28 10:16:54;;;;;;;2.50;1.88;;;;;;;;;;5220961;28;20538;-86
2022/05/28 10:19:27;;;;;;;5.97;3.42;;;;;;;;;;5218859;28;20033;-85
2022/05/28 10:21:59;;;;;;;5.80;2.53;;;;;;;;;;5199647;28;20025;-86
2022/05/28 10:24:35;;;;;;;1.25;1.00;;;;;;;;;;5219444;28;20052;-86
2022/05/28 10:27:13;;;;;;;1.50;1.40;;;;;;;;;;5201697;28;20029;-86
2022/05/28 10:29:48;;;;;;;3.50;1.77;;;;;;;;;;5218379;28;20085;-85
2022/05/28 10:32:40;;;;;;;2.40;1.65;;;;;;;;;;5219196;28;20121;-85
2022/05/28 10:35:31;;;;;;;3.40;2.00;;;;;;;;;;5216065;28;20022;-84
2022/05/28 10:38:08;;;;;;;1.70;1.60;;;;;;;;;;5199089;28;20029;-84
2022/05/28 10:40:50;;;;;;;3.80;1.52;;;;;;;;;;5196952;28;20032;-84
2022/05/28 10:43:30;;;;;;;1.50;1.50;;;;;;;;;;5196991;28;20446;-84
2022/05/28 10:46:07;;;;;;;4.00;1.98;;;;;;;;;;5196997;28;20032;-85
2022/05/28 10:48:37;;;;;;;3.00;2.78;;;;;;;;;;5197901;28;20484;-85
2022/05/28 10:51:11;;;;;;;3.97;1.50;;;;;;;;;;5214229;28;20097;-85
2022/05/28 10:53:52;;;;;;;1.73;1.63;;;;;;;;;;5198424;28;20026;-85
2022/05/28 10:56:46;;;;;;;2.38;2.28;;;;;;;;;;5215891;28;20373;-85
2022/05/28 10:59:35;;;;;;;2.78;1.67;;;;;;;;;;5196339;28;20038;-85
2022/05/28 11:02:18;;;;;;;4.82;1.65;;;;;;;;;;5201731;28;20037;-89
2022/05/28 11:04:50;;;;;;;4.57;2.63;;;;;;;;;;5200282;28;20021;-85
2022/05/28 11:07:32;;;;;;;1.90;1.80;;;;;;;;;;5216282;28;20024;-85
2022/05/28 11:10:05;;;;;;;5.57;2.58;;;;;;;;;;5218974;28;20122;-85
2022/05/28 11:12:36;;;;;;;1.70;1.60;;;;;;;;;;5217952;28;20045;-84
2022/05/28 11:15:09;;;;;;;4.53;2.60;;;;;;;;;;5219035;28;20071;-83
2022/05/28 11:17:47;;;;;;;13.35;2.85;;;;;;;;;;5218375;28;20021;-86
2022/05/28 11:20:27;;;;;;;1.55;1.50;;;;;;;;;;5201258;28;20074;-84
2022/05/28 11:23:11;;;;;;;3.08;1.98;;;;;;;;;;5198995;28;20078;-84
2022/05/28 11:25:49;;;;;;;1.85;1.75;;;;;;;;;;5184607;28;20087;-85
2022/05/28 11:28:23;;;;;;;2.35;2.22;;;;;;;;;;5179780;28;20041;-84
2022/05/28 11:30:56;;;;;;;3.03;2.47;;;;;;;;;;5176587;28;20044;-85
2022/05/28 11:33:37;;;;;;;3.08;2.45;;;;;;;;;;5177783;28;20109;-84
2022/05/28 11:36:12;;;;;;;3.78;1.85;;;;;;;;;;5170738;28;20477;-86
2022/05/28 11:38:46;;;;;;;7.55;2.63;;;;;;;;;;5163812;28;20076;-85
2022/05/28 11:41:39;;;;;;;9.75;2.67;;;;;;;;;;5164792;28;20026;-85
2022/05/28 11:44:15;;;;;;;1.70;1.60;;;;;;;;;;5182702;28;20022;-84
2022/05/28 11:46:48;;;;;;;2.10;2.00;;;;;;;;;;5165627;28;20033;-85
2022/05/28 11:52:11;;;;;;;1.85;1.73;;;;;;;;;;5191098;28;20052;-86
2022/05/28 11:54:47;;;;;;;4.82;2.05;;;;;;;;;;5186876;28;20022;-86
2022/05/28 11:57:23;;;;;;;8.35;2.63;;;;;;;;;;5188240;28;20387;-86
2022/05/28 11:59:55;;;;;;;1.20;1.17;;;;;;;;;;5208382;28;20022;-86
2022/05/28 12:02:28;;;;;;;1.27;1.27;;;;;;;;;;5190584;28;20055;-87
2022/05/28 12:04:58;;;;;;;2.58;2.47;;;;;;;;;;5208902;28;20013;-88
2022/05/28 12:07:34;;;;;;;2.10;1.80;;;;;;;;;;5208693;28;20013;-84
2022/05/28 12:10:10;;;;;;;1.88;1.77;;;;;;;;;;5207614;28;20265;-85
2022/05/28 12:12:52;;;;;;;3.42;1.90;;;;;;;;;;5207171;28;20428;-87
2022/05/28 12:15:25;;;;;;;2.70;2.50;;;;;;;;;;5191382;28;20056;-85
2022/05/28 12:18:17;;;;;;;2.85;2.17;;;;;;;;;;5207055;28;20022;-87
2022/05/28 12:20:58;;;;;;;4.97;2.33;;;;;;;;;;5175128;28;20025;-86
2022/05/28 12:23:39;;;;;;;7.72;2.63;;;;;;;;;;5189828;28;20048;-88
2022/05/28 12:26:47;;;;;;;5.72;1.50;;;;;;;;;;5189950;28;20018;-86
2022/05/28 12:29:34;;;;;;;1.48;1.35;;;;;;;;;;5188395;28;20025;-84
2022/05/28 12:32:15;;;;;;;1.05;1.05;;;;;;;;;;5185422;28;20028;-83
2022/05/28 12:34:51;;;;;;;3.72;1.98;;;;;;;;;;5204163;28;20041;-91
2022/05/28 12:37:24;;;;;;;2.20;2.00;;;;;;;;;;5189970;28;20018;-88
2022/05/28 12:40:08;;;;;;;4.30;2.25;;;;;;;;;;5187389;28;20028;-84
2022/05/28 12:42:39;;;;;;;2.22;2.13;;;;;;;;;;5188133;28;20022;-86
2022/05/28 12:45:18;;;;;;;4.70;2.90;;;;;;;;;;5205790;28;20045;-86
2022/05/28 12:47:48;;;;;;;1.85;1.60;;;;;;;;;;5205238;28;20014;-86
2022/05/28 12:50:26;;;;;;;5.10;2.00;;;;;;;;;;5183892;28;20066;-86
2022/05/28 12:53:05;;;;;;;1.50;1.48;;;;;;;;;;5183653;28;20017;-87
2022/05/28 12:55:37;;;;;;;2.40;1.75;;;;;;;;;;5183528;28;20120;-86
2022/05/28 12:58:22;;;;;;;2.05;1.65;;;;;;;;;;5201922;28;20022;-86
2022/05/28 13:01:01;;;;;;;11.40;3.20;;;;;;;;;;5183042;28;20038;-86
2022/05/28 13:03:34;;;;;;;1.98;1.88;;;;;;;;;;5181754;28;20034;-87
2022/05/28 13:06:04;;;;;;;7.68;3.15;;;;;;;;;;5196777;28;20077;-86
2022/05/28 13:08:40;;;;;;;5.18;2.55;;;;;;;;;;5194619;28;20033;-86
2022/05/28 13:11:29;;;;;;;2.67;2.50;;;;;;;;;;5193632;28;20125;-86
2022/05/28 13:13:59;;;;;;;9.68;3.20;;;;;;;;;;5194680;28;20014;-87
2022/05/28 13:16:30;;;;;;;2.03;1.93;;;;;;;;;;5193961;28;20029;-88
2022/05/28 13:19:09;;;;;;;2.57;2.33;;;;;;;;;;5174705;28;20273;-86
2022/05/28 13:21:39;;;;;;;3.08;2.35;;;;;;;;;;5194858;28;20276;-85
2022/05/28 13:24:19;;;;;;;2.05;1.95;;;;;;;;;;5178095;28;20085;-87
2022/05/28 13:26:55;;;;;;;2.70;2.45;;;;;;;;;;5194075;28;20472;-86
2022/05/28 13:29:40;;;;;;;2.75;2.22;;;;;;;;;;5191694;28;20428;-87
2022/05/28 13:32:14;;;;;;;2.15;1.98;;;;;;;;;;5174594;28;20112;-86
2022/05/28 13:34:45;;;;;;;4.07;1.95;;;;;;;;;;5194034;28;20017;-87
2022/05/28 13:37:19;;;;;;;3.35;2.45;;;;;;;;;;5177792;28;20026;-84
2022/05/28 13:39:51;;;;;;;4.95;2.20;;;;;;;;;;5185969;28;20507;-85
2022/05/28 13:42:22;;;;;;;3.67;2.30;;;;;;;;;;5173149;28;20539;-86
2022/05/28 13:44:55;;;;;;;3.33;2.55;;;;;;;;;;5190331;28;20053;-86
2022/05/28 13:47:31;;;;;;;1.88;1.80;;;;;;;;;;5173615;28;20379;-87
2022/05/28 13:50:04;;;;;;;3.20;1.75;;;;;;;;;;5190247;28;20018;-87
2022/05/28 13:52:38;;;;;;;2.67;2.47;;;;;;;;;;5190621;28;20439;-87
2022/05/28 13:55:09;;;;;;;2.50;1.65;;;;;;;;;;5189434;28;20030;-86
2022/05/28 13:57:44;;;;;;;3.72;2.22;;;;;;;;;;5190297;28;20558;-87
2022/05/28 14:00:25;;;;;;;6.35;2.40;;;;;;;;;;5190262;28;20472;-88
2022/05/28 14:02:56;;;;;;;2.97;1.83;;;;;;;;;;5189335;28;20403;-87
2022/05/28 14:05:28;;;;;;;3.25;2.00;;;;;;;;;;5181042;28;20022;-86
2022/05/28 14:08:09;;;;;;;2.67;2.55;;;;;;;;;;5190438;28;20014;-85
2022/05/28 14:10:41;;;;;;;4.05;2.40;;;;;;;;;;5190414;28;20049;-85
2022/05/28 14:13:18;;;;;;;1.98;1.75;;;;;;;;;;5188997;28;20037;-86
2022/05/28 14:15:52;;;;;;;8.82;2.78;;;;;;;;;;5172505;28;20034;-86
2022/05/28 14:18:23;;;;;;;2.65;1.75;;;;;;;;;;5189241;28;20567;-86
2022/05/28 14:21:02;;;;;;;3.33;1.90;;;;;;;;;;5188426;28;20424;-86
2022/05/28 14:23:33;;;;;;;1.63;1.52;;;;;;;;;;5190164;28;20025;-86
2022/05/28 14:26:04;;;;;;;2.15;2.05;;;;;;;;;;5171125;28;20473;-85
2022/05/28 14:28:35;;;;;;;5.55;2.47;;;;;;;;;;5171468;28;20041;-87
2022/05/28 14:31:05;;;;;;;5.53;2.40;;;;;;;;;;5204332;28;20018;-87
2022/05/28 14:33:40;;;;;;;3.88;2.13;;;;;;;;;;5202740;28;20030;-85
2022/05/28 14:36:13;;;;;;;1.65;1.55;;;;;;;;;;5197079;28;20028;-86
2022/05/28 14:38:44;;;;;;;3.65;1.45;;;;;;;;;;5178665;28;20383;-84
2022/05/28 14:41:15;;;;;;;3.15;2.95;;;;;;;;;;5189015;28;20026;-84
2022/05/28 14:43:50;;;;;;;8.40;2.88;;;;;;;;;;5190288;28;20032;-85
2022/05/28 14:46:21;;;;;;;1.63;1.52;;;;;;;;;;5187846;28;20112;-85
2022/05/28 14:49:04;;;;;;;1.15;1.15;;;;;;;;;;5189400;28;20488;-84
2022/05/28 14:51:39;;;;;;;2.08;1.98;;;;;;;;;;5171197;28;20045;-83
2022/05/28 14:54:27;;;;;;;1.50;1.40;;;;;;;;;;5170661;28;20014;-84
2022/05/28 14:56:58;;;;;;;3.35;1.92;;;;;;;;;;5189885;28;20553;-84
2022/05/28 14:59:46;;;;;;;1.15;1.15;;;;;;;;;;5170415;28;20514;-83
2022/05/28 15:02:19;;;;;;;1.77;1.58;;;;;;;;;;5189031;22;20020;-81
2022/05/28 15:04:50;;;;;;;15.40;4.18;;;;;;;;;;5217459;28;20434;-81
2022/05/28 15:07:22;;;;;;;1.70;1.55;;;;;;;;;;5235393;28;20025;-82
2022/05/28 15:09:55;;;;;;;1.98;1.88;;;;;;;;;;5234916;28;20024;-80
2022/05/28 15:12:27;;;;;;;8.95;2.78;;;;;;;;;;5234934;28;20028;-80
2022/05/28 15:15:01;;;;;;;3.17;2.17;;;;;;;;;;5216329;28;20025;-81
2022/05/28 15:17:32;;;;;;;9.63;2.30;;;;;;;;;;5200851;28;20044;-82
2022/05/28 15:20:03;;;;;;;3.03;2.53;;;;;;;;;;5196594;28;20025;-82
2022/05/28 15:22:33;;;;;;;3.05;2.85;;;;;;;;;;5198622;28;20089;-82
2022/05/28 15:25:04;;;;;;;2.00;1.85;;;;;;;;;;5201168;28;20052;-81
2022/05/28 15:27:34;;;;;;;3.00;1.65;;;;;;;;;;5218273;28;20018;-82
2022/05/28 15:30:05;;;;;;;4.25;2.58;;;;;;;;;;5200629;28;20018;-81
2022/05/28 15:32:37;;;;;;;5.47;2.50;;;;;;;;;;5200328;28;20438;-82
2022/05/28 15:35:12;;;;;;;3.55;3.20;;;;;;;;;;5213898;28;20053;-81